Time;durP1;ratioP1;P1;durP2;ratioP2;P2;SDS_P1;SDS_P2;PMS_P1;PMS_P2;Temp;Humidity;BMP_temperature;BMP_pressure;BME280_temperature;BME280_humidity;BME280_pressure;Samples;Min_cycle;Max_cycle;Signal;HPM_P1;HPM_P2
2022/11/09 00:01:27;;;;;;;;;;;205.10;2252.80;;;;;;5090654;28;20048;-79
2022/11/09 00:03:57;;;;;;;72.03;14.43;;;205.10;2252.80;;;;;;5087009;28;19912;-80
2022/11/09 00:06:24;;;;;;;78.38;14.93;;;205.10;2252.80;;;;;;5085368;28;20023;-79
2022/11/09 00:08:50;;;;;;;59.65;13.77;;;205.10;2252.80;;;;;;5085843;28;20466;-80
2022/11/09 00:11:17;;;;;;;72.05;14.45;;;205.00;2252.80;;;;;;5091028;28;20131;-80
2022/11/09 00:13:44;;;;;;;41.58;14.15;;;204.90;2252.80;;;;;;5085769;28;20027;-80
2022/11/09 00:16:12;;;;;;;40.50;14.70;;;205.00;2252.80;;;;;;5084924;28;20046;-80
2022/11/09 00:18:40;;;;;;;39.63;14.43;;;205.00;2252.80;;;;;;5086374;28;20061;-80
2022/11/09 00:21:11;;;;;;;22.20;13.57;;;205.10;2252.80;;;;;;5076676;28;20556;-82
2022/11/09 00:23:37;;;;;;;53.53;14.52;;;205.10;2252.80;;;;;;5082316;28;20024;-80
2022/11/09 00:26:05;;;;;;;35.90;13.52;;;205.10;2252.80;;;;;;5084978;28;20016;-79
2022/11/09 00:28:31;;;;;;;39.42;14.98;;;205.10;2252.80;;;;;;5083177;28;20064;-79
2022/11/09 00:30:58;;;;;;;;;;;205.20;2252.80;;;;;;5082434;28;20062;-79
2022/11/09 00:33:23;;;;;;;90.57;18.60;;;205.20;2252.80;;;;;;5084312;28;20038;-78
2022/11/09 00:35:49;;;;;;;26.05;15.40;;;205.10;2252.80;;;;;;5088237;28;20054;-79
2022/11/09 00:38:14;;;;;;;;;;;205.20;2252.80;;;;;;5088306;28;20024;-81
2022/11/09 00:40:40;;;;;;;57.95;15.57;;;205.10;2252.80;;;;;;5090673;28;19908;-80
2022/11/09 00:43:06;;;;;;;;;;;205.10;2252.80;;;;;;5079780;28;20042;-80
2022/11/09 00:45:31;;;;;;;76.10;18.02;;;205.20;2252.80;;;;;;5086650;28;19904;-79
2022/11/09 00:47:57;;;;;;;93.13;20.52;;;205.20;2252.80;;;;;;5086768;28;20089;-79
2022/11/09 00:50:23;;;;;;;;;;;205.20;2252.80;;;;;;5083296;28;20111;-80
2022/11/09 00:52:48;;;;;;;33.15;16.08;;;205.30;2252.80;;;;;;5084150;28;19910;-80
2022/11/09 00:55:14;;;;;;;;;;;205.40;2252.80;;;;;;5084426;28;20393;-80
2022/11/09 00:57:39;;;;;;;29.02;15.50;;;205.40;2252.80;;;;;;5084198;28;19928;-80
2022/11/09 01:00:05;;;;;;;;;;;205.50;2252.80;;;;;;5093098;28;20012;-80
2022/11/09 01:02:31;;;;;;;33.38;18.52;;;205.60;2252.80;;;;;;5085281;28;19913;-79
2022/11/09 01:04:57;;;;;;;29.38;16.52;;;205.60;2252.80;;;;;;5094306;28;20031;-79
2022/11/09 01:07:22;;;;;;;30.83;15.70;;;205.60;2252.80;;;;;;5084560;28;20036;-79
2022/11/09 01:09:48;;;;;;;;;;;205.60;2252.80;;;;;;5081807;28;20085;-79
2022/11/09 01:12:14;;;;;;;27.52;14.63;;;205.70;2252.80;;;;;;5089753;28;20372;-79
2022/11/09 01:14:39;;;;;;;;;;;230.40;2252.80;;;;;;5086107;28;20555;-80
2022/11/09 01:17:05;;;;;;;30.92;14.73;;;205.70;2252.80;;;;;;5087039;28;19912;-80
2022/11/09 01:19:30;;;;;;;;;;;205.70;2252.80;;;;;;5085177;28;20021;-80
2022/11/09 01:21:56;;;;;;;29.98;18.13;;;230.40;2252.80;;;;;;5088470;28;19918;-79
2022/11/09 01:24:22;;;;;;;;;;;230.40;2252.80;;;;;;5086468;28;20039;-80
2022/11/09 01:26:47;;;;;;;33.15;16.67;;;230.40;2252.80;;;;;;5078775;28;19908;-80
2022/11/09 01:29:13;;;;;;;31.40;17.98;;;230.50;2252.80;;;;;;5090391;28;20047;-80
2022/11/09 01:31:39;;;;;;;;;;;230.50;2252.80;;;;;;5086070;28;20020;-80
2022/11/09 01:34:04;;;;;;;29.35;17.42;;;230.60;2252.80;;;;;;5086802;28;19904;-80
2022/11/09 01:36:30;;;;;;;32.78;17.20;;;230.60;2252.80;;;;;;5075871;28;20024;-79
2022/11/09 01:38:56;;;;;;;27.88;17.88;;;230.50;2252.80;;;;;;5084896;28;20025;-80
2022/11/09 01:41:23;;;;;;;;;;;230.50;2252.80;;;;;;5070081;28;20040;-80
2022/11/09 01:44:05;;;;;;;26.35;13.90;;;230.40;2252.80;;;;;;5081389;28;19935;-80
2022/11/09 01:46:50;;;;;;;21.80;13.80;;;205.60;2252.80;;;;;;5087066;28;20482;-80
2022/11/09 01:49:44;;;;;;;21.67;12.38;;;205.50;2252.80;;;;;;5086203;28;20031;-79
2022/11/09 01:52:13;;;;;;;22.17;12.80;;;205.50;2252.80;;;;;;5077713;28;20021;-79
2022/11/09 01:54:43;;;;;;;23.60;12.23;;;205.40;2252.80;;;;;;5084876;28;20469;-80
2022/11/09 01:57:21;;;;;;;21.77;11.95;;;205.20;2252.80;;;;;;5081261;28;20023;-80
2022/11/09 01:59:52;;;;;;;15.55;9.80;;;205.10;2252.80;;;;;;5075966;28;20027;-79
2022/11/09 02:02:18;;;;;;;15.48;10.60;;;205.10;2252.80;;;;;;5101328;28;20086;-80
2022/11/09 02:04:51;;;;;;;15.35;10.05;;;205.30;2252.80;;;;;;5081099;28;20023;-80
2022/11/09 02:07:18;;;;;;;17.00;10.68;;;205.00;2252.80;;;;;;5077577;28;20029;-80
2022/11/09 02:09:54;;;;;;;15.15;10.05;;;205.00;2252.80;;;;;;5080025;28;20431;-80
2022/11/09 02:12:21;;;;;;;;;;;204.90;2252.80;;;;;;5081776;28;20141;-79
2022/11/09 02:14:49;;;;;;;18.70;11.00;;;205.00;2252.80;;;;;;5085967;28;19919;-80
2022/11/09 02:17:15;;;;;;;16.75;10.80;;;205.00;2252.80;;;;;;5086912;28;20477;-81
2022/11/09 02:19:41;;;;;;;18.30;12.40;;;204.80;2252.80;;;;;;5085570;28;20040;-80
2022/11/09 02:22:06;;;;;;;;;;;180.10;2252.80;;;;;;5075614;28;20072;-79
2022/11/09 02:24:33;;;;;;;18.90;10.73;;;180.10;2252.80;;;;;;5082451;28;20367;-79
2022/11/09 02:26:59;;;;;;;20.45;11.57;;;180.00;2252.80;;;;;;5082816;28;20030;-79
2022/11/09 02:29:34;;;;;;;18.30;11.35;;;180.00;2252.80;;;;;;5077258;28;20030;-78
2022/11/09 02:32:12;;;;;;;20.65;12.38;;;180.10;2252.80;;;;;;5082069;28;20031;-80
2022/11/09 02:34:38;;;;;;;14.80;9.85;;;204.80;2252.80;;;;;;5077957;28;20021;-79
2022/11/09 02:37:04;;;;;;;;;;;204.80;2252.80;;;;;;5082188;28;20061;-80
2022/11/09 02:39:29;;;;;;;16.40;10.40;;;204.80;2252.80;;;;;;5083826;28;19908;-79
2022/11/09 02:42:03;;;;;;;;;;;180.10;2252.80;;;;;;5086603;28;20036;-80
2022/11/09 02:44:31;;;;;;;19.00;10.70;;;180.10;2252.80;;;;;;5084909;28;19961;-80
2022/11/09 02:46:57;;;;;;;16.20;10.77;;;180.10;2252.80;;;;;;5079685;28;20027;-81
2022/11/09 02:49:22;;;;;;;;;;;180.00;2252.80;;;;;;5078237;28;20032;-80
2022/11/09 02:51:48;;;;;;;16.77;10.68;;;180.10;2252.80;;;;;;5083500;28;19912;-80
2022/11/09 02:54:14;;;;;;;16.77;10.80;;;180.00;2252.80;;;;;;5077604;28;20024;-80
2022/11/09 02:56:39;;;;;;;;;;;180.10;2252.80;;;;;;5079984;28;20044;-80
2022/11/09 02:59:05;;;;;;;17.80;10.82;;;204.80;2252.80;;;;;;5079629;28;19915;-80
2022/11/09 03:01:31;;;;;;;;;;;204.80;2252.80;;;;;;5082174;28;20103;-80
2022/11/09 03:03:56;;;;;;;20.70;12.05;;;204.80;2252.80;;;;;;5085248;28;19994;-79
2022/11/09 03:06:33;;;;;;;;;;;204.90;2252.80;;;;;;5081704;28;20081;-80
2022/11/09 03:09:04;;;;;;;19.48;11.15;;;204.80;2252.80;;;;;;5076697;28;19904;-80
2022/11/09 03:11:29;;;;;;;17.00;10.45;;;204.80;2252.80;;;;;;5077366;28;20051;-79
2022/11/09 03:13:55;;;;;;;;;;;180.10;2252.80;;;;;;5079672;28;20370;-77
2022/11/09 03:16:21;;;;;;;18.13;10.68;;;179.90;2252.80;;;;;;5078426;28;19904;-80
2022/11/09 03:18:47;;;;;;;;;;;179.90;2252.80;;;;;;5076495;28;20031;-79
2022/11/09 03:21:12;;;;;;;15.50;10.07;;;179.80;2252.80;;;;;;5084569;28;19904;-79
2022/11/09 03:23:38;;;;;;;19.90;11.45;;;179.70;2252.80;;;;;;5081554;28;20036;-80
2022/11/09 03:26:04;;;;;;;;;;;179.60;2252.80;;;;;;5081787;28;20070;-79
2022/11/09 03:28:30;;;;;;;17.98;11.75;;;179.50;2252.80;;;;;;5081285;28;20302;-80
2022/11/09 03:30:55;;;;;;;;;;;179.40;2252.80;;;;;;5104979;28;20350;-80
2022/11/09 03:33:21;;;;;;;20.17;12.20;;;179.40;2252.80;;;;;;5082459;28;19911;-80
2022/11/09 03:35:46;;;;;;;;;;;179.40;2252.80;;;;;;5081739;28;20020;-80
2022/11/09 03:38:12;;;;;;;19.35;11.98;;;179.30;2252.80;;;;;;5087905;28;19904;-81
2022/11/09 03:40:38;;;;;;;;;;;179.30;2252.80;;;;;;5092181;28;20470;-80
2022/11/09 03:43:04;;;;;;;20.75;12.88;;;179.30;2252.80;;;;;;5085309;28;19966;-80
2022/11/09 03:45:30;;;;;;;24.05;12.25;;;179.30;2252.80;;;;;;5085033;28;20066;-80
2022/11/09 03:47:58;;;;;;;;;;;179.40;2252.80;;;;;;5093162;28;20024;-80
2022/11/09 03:50:25;;;;;;;22.13;13.43;;;179.40;2252.80;;;;;;5089661;28;19905;-80
2022/11/09 03:52:51;;;;;;;23.13;13.38;;;179.40;2252.80;;;;;;5091425;28;20031;-80
2022/11/09 03:55:17;;;;;;;;;;;179.40;2252.80;;;;;;5089583;28;20020;-81
2022/11/09 03:57:44;;;;;;;24.23;13.45;;;179.40;2252.80;;;;;;5088195;28;19911;-80
2022/11/09 04:00:11;;;;;;;25.13;14.05;;;179.40;2252.80;;;;;;5086269;28;20111;-79
2022/11/09 04:02:37;;;;;;;21.90;13.02;;;179.40;2252.80;;;;;;5091449;28;20085;-79
2022/11/09 04:05:03;;;;;;;;;;;179.50;2252.80;;;;;;5086582;28;20035;-80
2022/11/09 04:07:29;;;;;;;22.20;12.02;;;179.50;2252.80;;;;;;5088621;28;19904;-80
2022/11/09 04:09:54;;;;;;;;;;;179.50;2252.80;;;;;;5092860;28;20031;-80
2022/11/09 04:12:20;;;;;;;20.48;11.65;;;179.50;2252.80;;;;;;5085321;28;19943;-80
2022/11/09 04:14:45;;;;;;;;;;;179.50;2252.80;;;;;;5083340;28;20028;-81
2022/11/09 04:17:11;;;;;;;17.90;10.93;;;179.50;2252.80;;;;;;5101328;28;19961;-79
2022/11/09 04:19:37;;;;;;;;;;;179.50;2252.80;;;;;;5086761;28;20476;-80
2022/11/09 04:22:02;;;;;;;17.42;9.52;;;179.60;2252.80;;;;;;5086594;28;19916;-79
2022/11/09 04:24:28;;;;;;;;;;;179.70;2252.80;;;;;;5083079;28;20031;-79
2022/11/09 04:26:53;;;;;;;17.65;10.05;;;179.70;2252.80;;;;;;5084295;28;20372;-80
2022/11/09 04:29:19;;;;;;;;;;;179.70;2252.80;;;;;;5090907;28;20020;-79
2022/11/09 04:31:47;;;;;;;18.33;11.45;;;179.70;2252.80;;;;;;5085708;28;19994;-80
2022/11/09 04:34:13;;;;;;;21.77;11.43;;;179.70;2252.80;;;;;;5091069;28;20481;-80
2022/11/09 04:36:39;;;;;;;;;;;179.70;2252.80;;;;;;5085625;28;20035;-80
2022/11/09 04:39:04;;;;;;;19.90;10.40;;;179.60;2252.80;;;;;;5082825;28;19904;-80
2022/11/09 04:41:30;;;;;;;;;;;179.60;2252.80;;;;;;5084561;28;20396;-80
2022/11/09 04:43:56;;;;;;;17.65;9.75;;;179.70;2252.80;;;;;;5086822;28;20053;-80
2022/11/09 04:46:21;;;;;;;;;;;179.80;2252.80;;;;;;5082405;28;20583;-80
2022/11/09 04:48:47;;;;;;;25.55;10.23;;;179.70;2252.80;;;;;;5085471;28;19904;-79
2022/11/09 04:51:13;;;;;;;;;;;179.70;2252.80;;;;;;5088800;28;20020;-80
2022/11/09 04:53:39;;;;;;;21.00;11.57;;;179.70;2252.80;;;;;;5077693;28;20308;-80
2022/11/09 04:56:06;;;;;;;23.45;12.45;;;179.70;2252.80;;;;;;5081548;28;20020;-80
2022/11/09 04:58:32;;;;;;;24.30;13.23;;;179.70;2252.80;;;;;;5085932;28;20020;-80
2022/11/09 05:01:02;;;;;;;;;;;179.70;2252.80;;;;;;5085398;28;20023;-80
2022/11/09 05:03:28;;;;;;;20.08;12.05;;;179.70;2252.80;;;;;;5081677;28;19913;-79
2022/11/09 05:05:54;;;;;;;;;;;179.70;2252.80;;;;;;5090771;28;20080;-80
2022/11/09 05:08:19;;;;;;;24.73;12.48;;;179.80;2252.80;;;;;;5085032;28;20325;-79
2022/11/09 05:10:45;;;;;;;;;;;179.80;2252.80;;;;;;5082361;28;20032;-80
2022/11/09 05:13:12;;;;;;;21.52;12.55;;;179.90;2252.80;;;;;;5081864;28;19912;-80
2022/11/09 05:15:38;;;;;;;27.00;13.27;;;180.00;2252.80;;;;;;5084588;28;20068;-79
2022/11/09 05:18:05;;;;;;;24.20;12.48;;;180.00;2252.80;;;;;;5084856;28;20107;-80
2022/11/09 05:20:31;;;;;;;20.63;11.68;;;180.00;2252.80;;;;;;5080799;28;20034;-80
2022/11/09 05:25:42;;;;;;;26.25;12.90;;;179.90;2252.80;;;;;;5089093;28;20081;-80
2022/11/09 05:28:08;;;;;;;;;;;180.00;2252.80;;;;;;5081591;28;20448;-80
2022/11/09 05:30:33;;;;;;;24.02;12.10;;;179.90;2252.80;;;;;;5085762;28;19908;-80
2022/11/09 05:32:59;;;;;;;;;;;179.80;2252.80;;;;;;5083698;28;20556;-80
2022/11/09 05:35:25;;;;;;;21.35;11.80;;;179.90;2252.80;;;;;;5083891;28;21531;-80
2022/11/09 05:37:50;;;;;;;;;;;179.80;2252.80;;;;;;5082964;28;20056;-80
2022/11/09 05:40:18;;;;;;;23.50;12.68;;;179.70;2252.80;;;;;;5084215;28;19916;-80
2022/11/09 05:42:44;;;;;;;27.30;16.90;;;179.70;2252.80;;;;;;5081645;28;20031;-80
2022/11/09 05:45:11;;;;;;;;;;;179.70;2252.80;;;;;;5081294;28;20028;-80
2022/11/09 05:47:38;;;;;;;20.10;9.93;;;179.70;2252.80;;;;;;5080148;28;19932;-80
2022/11/09 05:50:05;;;;;;;32.90;16.05;;;179.80;2252.80;;;;;;5083292;28;20501;-81
2022/11/09 05:52:31;;;;;;;35.90;16.10;;;179.90;2252.80;;;;;;5087155;28;20024;-82
2022/11/09 05:54:56;;;;;;;;;;;179.90;2252.80;;;;;;5082108;28;20099;-82
2022/11/09 05:57:22;;;;;;;25.45;13.23;;;179.90;2252.80;;;;;;5085142;28;19907;-81
2022/11/09 05:59:48;;;;;;;;;;;179.90;2252.80;;;;;;5078329;28;20062;-82
2022/11/09 06:02:13;;;;;;;30.10;13.82;;;180.00;2252.80;;;;;;5084388;28;20363;-81
2022/11/09 06:04:39;;;;;;;;;;;180.10;2252.80;;;;;;5084588;28;20025;-82
2022/11/09 06:07:04;;;;;;;32.70;15.05;;;180.00;2252.80;;;;;;5089650;28;19904;-80
2022/11/09 06:09:30;;;;;;;;;;;180.00;2252.80;;;;;;5092874;28;20035;-79
2022/11/09 06:11:56;;;;;;;38.28;16.75;;;179.90;2252.80;;;;;;5104105;28;20333;-80
2022/11/09 06:14:21;;;;;;;;;;;179.90;2252.80;;;;;;5108414;28;20016;-80
2022/11/09 06:16:47;;;;;;;44.83;22.85;;;180.10;2252.80;;;;;;5104782;28;19919;-81
2022/11/09 06:19:12;;;;;;;;;;;204.80;2252.80;;;;;;5093359;28;20066;-82
2022/11/09 06:21:38;;;;;;;48.80;26.25;;;204.90;2252.80;;;;;;5106695;28;19904;-80
2022/11/09 06:24:04;;;;;;;;;;;205.00;2252.80;;;;;;5092834;28;20028;-78
2022/11/09 06:26:29;;;;;;;33.80;17.98;;;205.00;2252.80;;;;;;5103276;28;20373;-79
2022/11/09 06:28:55;;;;;;;;;;;205.00;2252.80;;;;;;5078951;28;20148;-80
2022/11/09 06:31:21;;;;;;;33.10;16.55;;;204.90;2252.80;;;;;;5075552;28;20327;-77
2022/11/09 06:33:46;;;;;;;;;;;204.90;2252.80;;;;;;5077342;28;20036;-79
2022/11/09 06:36:12;;;;;;;35.00;19.23;;;204.90;2252.80;;;;;;5091822;28;19911;-78
2022/11/09 06:38:38;;;;;;;;;;;204.90;2252.80;;;;;;5105402;28;20020;-78
2022/11/09 06:41:04;;;;;;;41.38;25.02;;;205.00;2252.80;;;;;;5109664;28;20357;-77
2022/11/09 06:43:29;;;;;;;;;;;205.10;2252.80;;;;;;5081934;28;20413;-79
2022/11/09 06:45:55;;;;;;;55.95;29.60;;;205.20;2252.80;;;;;;5076254;28;20345;-80
2022/11/09 06:48:21;;;;;;;;;;;205.30;2252.80;;;;;;5080491;28;20024;-79
2022/11/09 06:50:47;;;;;;;56.80;30.38;;;205.40;2252.80;;;;;;5077507;28;19908;-76
2022/11/09 06:53:14;;;;;;;;;;;205.60;2252.80;;;;;;5083426;28;20404;-79
2022/11/09 06:55:40;;;;;;;56.05;25.63;;;205.70;2252.80;;;;;;5085774;28;20619;-78
2022/11/09 06:58:11;;;;;;;66.93;34.10;;;230.40;2252.80;;;;;;5083890;28;20032;-79
2022/11/09 07:00:37;;;;;;;66.68;32.38;;;230.50;2252.80;;;;;;5088678;28;20027;-81
2022/11/09 07:03:03;;;;;;;;;;;230.60;2252.80;;;;;;5111056;28;20382;-79
2022/11/09 07:05:29;;;;;;;58.40;30.02;;;230.70;2252.80;;;;;;5084042;28;19908;-80
2022/11/09 07:07:56;;;;;;;64.88;34.13;;;230.70;2252.80;;;;;;5097185;28;20465;-80
2022/11/09 07:10:22;;;;;;;61.20;32.53;;;230.80;2252.80;;;;;;5080390;28;20040;-81
2022/11/09 07:12:47;;;;;;;;;;;230.90;2252.80;;;;;;5101135;28;20047;-80
2022/11/09 07:15:13;;;;;;;72.13;33.03;;;231.00;2252.80;;;;;;5097833;28;19910;-80
2022/11/09 07:17:40;;;;;;;66.72;33.17;;;231.00;2252.80;;;;;;5098743;28;20012;-80
2022/11/09 07:20:09;;;;;;;64.03;31.42;;;231.20;2252.80;;;;;;5104273;28;20123;-80
2022/11/09 07:22:38;;;;;;;64.30;30.65;;;231.20;2252.80;;;;;;5091871;28;20032;-81
2022/11/09 07:25:09;;;;;;;63.55;32.28;;;231.20;2252.80;;;;;;5097618;28;20029;-80
2022/11/09 07:27:35;;;;;;;63.80;31.20;;;231.30;2252.80;;;;;;5089484;28;20042;-82
2022/11/09 07:30:03;;;;;;;63.72;32.05;;;256.00;2252.80;;;;;;5097546;28;20024;-79
2022/11/09 07:32:31;;;;;;;67.40;32.00;;;256.10;2252.80;;;;;;5091925;28;20063;-80
2022/11/09 07:34:57;;;;;;;67.00;34.45;;;256.30;2252.80;;;;;;5105972;28;20099;-80
2022/11/09 07:37:22;;;;;;;69.22;34.28;;;256.30;2252.80;;;;;;5112059;28;20051;-83
2022/11/09 07:39:48;;;;;;;;;;;256.30;2252.80;;;;;;5112666;28;20023;-81
2022/11/09 07:42:14;;;;;;;58.72;29.20;;;256.40;2252.80;;;;;;5109291;28;20430;-82
2022/11/09 07:44:39;;;;;;;;;;;256.50;2252.80;;;;;;5101006;28;20047;-80
2022/11/09 07:47:05;;;;;;;66.30;32.50;;;256.60;2252.80;;;;;;5111486;28;19904;-79
2022/11/09 07:49:31;;;;;;;;;;;256.70;2252.80;;;;;;5111755;28;20110;-79
2022/11/09 07:51:56;;;;;;;64.53;32.85;;;256.60;2252.80;;;;;;5111449;28;19929;-78
2022/11/09 07:54:22;;;;;;;63.38;32.05;;;256.90;2252.80;;;;;;5091997;28;20089;-78
2022/11/09 07:56:48;;;;;;;;;;;256.90;2252.80;;;;;;5102088;28;20034;-78
2022/11/09 07:59:13;;;;;;;65.80;31.45;;;256.90;2252.80;;;;;;5096541;28;20246;-78
2022/11/09 08:01:39;;;;;;;;;;;256.80;2252.80;;;;;;5111259;28;20093;-78
2022/11/09 08:04:05;;;;;;;67.88;31.77;;;256.80;2252.80;;;;;;5110835;28;19911;-78
2022/11/09 08:06:31;;;;;;;59.97;30.75;;;256.90;2252.80;;;;;;5111688;28;20024;-80
2022/11/09 08:08:57;;;;;;;61.05;31.92;;;256.90;2252.80;;;;;;5111073;28;20028;-77
2022/11/09 08:11:23;;;;;;;73.25;35.92;;;256.90;2252.80;;;;;;5096226;28;20116;-80
2022/11/09 08:13:49;;;;;;;64.47;34.97;;;256.90;2252.80;;;;;;5111161;28;20026;-79
2022/11/09 08:16:15;;;;;;;69.30;34.90;;;281.90;2278.40;;;;;;5106924;28;20024;-83
2022/11/09 08:18:40;;;;;;;71.53;33.40;;;282.00;2278.40;;;;;;5100695;28;20024;-77
2022/11/09 08:21:06;;;;;;;71.03;35.78;;;282.10;2278.40;;;;;;5096570;28;20559;-77
2022/11/09 08:23:32;;;;;;;68.03;34.90;;;282.20;2278.40;;;;;;5106559;28;20043;-77
2022/11/09 08:26:05;;;;;;;60.97;32.80;;;282.30;2278.40;;;;;;5108169;28;20235;-79
2022/11/09 08:28:32;;;;;;;61.15;34.15;;;282.40;2278.40;;;;;;5107659;28;20024;-78
2022/11/09 08:31:00;;;;;;;62.30;31.17;;;282.50;2278.40;;;;;;5107372;28;20030;-81
2022/11/09 08:33:32;;;;;;;59.22;31.02;;;307.20;2304.00;;;;;;5109085;28;20031;-78
2022/11/09 08:35:57;;;;;;;60.47;33.80;;;307.30;2304.00;;;;;;5107934;28;20028;-78
2022/11/09 08:38:23;;;;;;;57.70;32.63;;;307.40;2304.00;;;;;;5115149;28;20084;-77
2022/11/09 08:40:49;;;;;;;71.72;32.95;;;307.50;2304.00;;;;;;5085605;28;20047;-78
2022/11/09 08:43:15;;;;;;;59.15;32.67;;;307.60;2304.00;;;;;;5100798;28;20033;-77
2022/11/09 08:45:41;;;;;;;59.92;34.13;;;307.70;2304.00;;;;;;5074033;28;20405;-77
2022/11/09 08:48:08;;;;;;;54.47;30.80;;;307.70;2124.80;;;;;;5089567;28;20128;-74
2022/11/09 08:50:37;;;;;;;61.47;33.10;;;307.80;2099.20;;;;;;5085445;28;20028;-75
2022/11/09 08:53:03;;;;;;;62.97;32.30;;;307.90;2227.20;;;;;;5113384;28;20023;-80
2022/11/09 08:55:30;;;;;;;56.95;30.95;;;307.90;2304.00;;;;;;5104314;28;20020;-74
2022/11/09 08:57:57;;;;;;;56.70;29.63;;;308.00;2304.00;;;;;;5111452;28;20499;-74
2022/11/09 09:00:24;;;;;;;62.88;32.05;;;308.10;2304.00;;;;;;5114671;28;20054;-74
2022/11/09 09:02:50;;;;;;;58.72;30.40;;;332.80;2329.60;;;;;;5114860;28;20036;-75
2022/11/09 09:05:16;;;;;;;55.10;30.05;;;332.90;2329.60;;;;;;5114744;28;20018;-74
2022/11/09 09:07:42;;;;;;;54.78;29.92;;;333.00;2329.60;;;;;;5113628;28;20031;-74
2022/11/09 09:10:08;;;;;;;59.75;30.08;;;333.20;2329.60;;;;;;5114386;28;20018;-76
2022/11/09 09:12:35;;;;;;;48.22;27.98;;;333.30;2329.60;;;;;;5113445;28;20048;-76
2022/11/09 09:15:01;;;;;;;48.55;28.10;;;333.50;2329.60;;;;;;5113113;28;20023;-78
2022/11/09 09:17:27;;;;;;;46.50;25.20;;;333.60;2329.60;;;;;;5100874;28;20373;-75
2022/11/09 09:19:52;;;;;;;47.95;26.15;;;333.70;2329.60;;;;;;5114234;28;20487;-77
2022/11/09 09:22:19;;;;;;;52.25;28.40;;;358.40;2329.60;;;;;;5094317;28;20139;-75
2022/11/09 09:24:45;;;;;;;51.63;30.60;;;359.10;2329.60;;;;;;5077223;28;20073;-76
2022/11/09 09:27:11;;;;;;;45.20;29.25;;;358.80;2329.60;;;;;;5071745;28;20021;-75
2022/11/09 09:29:36;;;;;;;47.28;27.17;;;359.00;2329.60;;;;;;5078573;28;20024;-76
2022/11/09 09:32:02;;;;;;;48.72;27.10;;;359.10;2329.60;;;;;;5073990;28;20027;-76
2022/11/09 09:34:28;;;;;;;51.65;27.65;;;359.30;2329.60;;;;;;5076264;28;20444;-78
2022/11/09 09:36:54;;;;;;;48.42;26.10;;;384.00;2329.60;;;;;;5095785;28;20047;-77
2022/11/09 09:39:20;;;;;;;45.83;27.35;;;;;;;;;;5075888;28;20035;-75
2022/11/09 09:42:07;;;;;;;47.15;28.42;;;384.30;2329.60;;;;;;5075387;28;20031;-74
2022/11/09 09:44:39;;;;;;;41.67;25.50;;;384.70;2329.60;;;;;;5080758;28;20025;-75
2022/11/09 09:47:13;;;;;;;43.65;25.88;;;384.80;2329.60;;;;;;5074508;28;20013;-75
2022/11/09 09:49:46;;;;;;;48.00;28.80;;;409.60;2355.20;;;;;;5080313;28;20032;-74
2022/11/09 09:52:41;;;;;;;44.58;24.80;;;409.80;2355.20;;;;;;5080970;28;20027;-76
2022/11/09 09:55:15;;;;;;;46.33;24.50;;;410.00;2355.20;;;;;;5072735;28;20203;-75
2022/11/09 09:57:45;;;;;;;44.05;25.73;;;410.10;2355.20;;;;;;5110519;28;20020;-76
2022/11/09 10:00:23;;;;;;;45.08;28.10;;;410.20;2355.20;;;;;;5112279;28;20042;-76
2022/11/09 10:02:50;;;;;;;46.47;27.13;;;410.30;2355.20;;;;;;5112293;28;20065;-76
2022/11/09 10:05:18;;;;;;;43.47;26.85;;;435.20;2355.20;;;;;;5100971;28;20024;-79
2022/11/09 10:08:26;;;;;;;50.58;24.95;;;435.30;2355.20;;;;;;5098072;28;20025;-76
2022/11/09 10:11:01;;;;;;;43.10;25.60;;;435.40;2355.20;;;;;;5106565;28;20028;-75
2022/11/09 10:13:58;;;;;;;37.10;22.57;;;435.60;2355.20;;;;;;5113010;28;20032;-77
2022/11/09 10:16:26;;;;;;;36.22;22.67;;;435.70;2355.20;;;;;;5080145;28;20730;-76
2022/11/09 10:19:07;;;;;;;38.63;23.60;;;435.80;2355.20;;;;;;5103555;28;20504;-75
2022/11/09 10:22:06;;;;;;;42.58;24.58;;;435.90;2355.20;;;;;;5111693;28;20066;-76
2022/11/09 10:24:38;;;;;;;36.60;22.67;;;436.00;2355.20;;;;;;5111428;28;20032;-77
2022/11/09 10:27:30;;;;;;;35.00;21.95;;;435.90;2355.20;;;;;;5112228;28;20042;-77
2022/11/09 10:29:58;;;;;;;38.40;22.33;;;436.10;2355.20;;;;;;5111140;28;20028;-77
2022/11/09 10:32:27;;;;;;;31.80;19.60;;;460.90;2380.80;;;;;;5113535;28;20027;-77
2022/11/09 10:35:13;;;;;;;28.75;18.95;;;460.90;2380.80;;;;;;5108400;28;20016;-77
2022/11/09 10:37:42;;;;;;;33.67;20.17;;;460.80;2380.80;;;;;;5103733;28;20042;-75
2022/11/09 10:40:08;;;;;;;34.20;21.45;;;461.00;2380.80;;;;;;5098108;28;20076;-75
2022/11/09 10:42:34;;;;;;;30.75;19.95;;;461.10;2380.80;;;;;;5112716;28;20024;-77
2022/11/09 10:45:10;;;;;;;30.67;19.55;;;;;;;;;;5112020;28;20393;-77
2022/11/09 10:47:50;;;;;;;31.88;20.98;;;461.30;2380.80;;;;;;5112732;28;20038;-77
2022/11/09 10:50:30;;;;;;;33.75;22.35;;;461.50;2380.80;;;;;;5111386;28;20023;-77
2022/11/09 10:53:14;;;;;;;37.20;20.23;;;461.60;2380.80;;;;;;5112705;28;20015;-77
2022/11/09 10:56:10;;;;;;;33.47;18.90;;;461.70;2380.80;;;;;;5084019;28;20023;-77
2022/11/09 10:58:39;;;;;;;32.83;21.10;;;461.50;2380.80;;;;;;5111226;28;20362;-78
2022/11/09 11:01:11;;;;;;;35.72;21.15;;;461.70;2380.80;;;;;;5111533;28;20011;-77
2022/11/09 11:03:38;;;;;;;35.08;20.85;;;486.40;2380.80;;;;;;5112397;28;20031;-77
2022/11/09 11:06:06;;;;;;;29.52;20.33;;;486.40;2380.80;;;;;;5112785;28;20469;-76
2022/11/09 11:08:39;;;;;;;33.50;21.52;;;486.50;2380.80;;;;;;5096686;28;20479;-77
2022/11/09 11:11:17;;;;;;;30.00;19.40;;;486.70;2380.80;;;;;;5112036;28;20032;-77
2022/11/09 11:13:44;;;;;;;31.33;19.50;;;486.70;2380.80;;;;;;5112484;28;20474;-76
2022/11/09 11:16:20;;;;;;;30.00;21.38;;;486.50;2380.80;;;;;;5108534;28;20476;-77
2022/11/09 11:18:46;;;;;;;31.88;20.67;;;486.60;2380.80;;;;;;5103098;28;20028;-77
2022/11/09 11:21:18;;;;;;;31.42;19.38;;;486.60;2380.80;;;;;;5112030;28;20054;-78
2022/11/09 11:23:43;;;;;;;31.48;19.90;;;486.50;2380.80;;;;;;5110674;28;20039;-77
2022/11/09 11:26:59;;;;;;;35.78;22.02;;;486.40;2380.80;;;;;;5097979;28;20024;-77
2022/11/09 11:29:44;;;;;;;31.50;20.35;;;486.40;2380.80;;;;;;5029418;28;20104;-76
2022/11/09 11:32:17;;;;;;;36.20;20.55;;;486.50;2380.80;;;;;;5029674;28;20026;-76
2022/11/09 11:34:43;;;;;;;34.17;20.95;;;486.50;2380.80;;;;;;5012863;28;20052;-75
2022/11/09 11:37:15;;;;;;;33.83;19.17;;;486.60;2380.80;;;;;;5022408;28;20523;-76
2022/11/09 11:40:00;;;;;;;32.75;21.00;;;486.40;2380.80;;;;;;5014080;28;20062;-76
2022/11/09 11:42:48;;;;;;;35.40;19.57;;;486.40;2380.80;;;;;;5012544;28;20099;-77
2022/11/09 11:58:15;;;;;;;34.75;21.73;;;486.40;2380.80;;;;;;5109957;27;20900;-74
2022/11/09 12:01:07;;;;;;;32.92;21.02;;;486.80;2380.80;;;;;;5080807;28;20028;-76
2022/11/09 12:03:38;;;;;;;29.90;20.10;;;486.70;2380.80;;;;;;5084736;28;20023;-76
2022/11/09 12:06:30;;;;;;;28.88;19.58;;;486.60;2380.80;;;;;;5096341;28;20602;-75
2022/11/09 12:09:25;;;;;;;33.80;20.85;;;486.50;2380.80;;;;;;5081761;28;20046;-75
2022/11/09 12:12:06;;;;;;;35.13;21.33;;;486.40;2380.80;;;;;;5074184;28;20373;-75
2022/11/09 12:14:54;;;;;;;34.67;22.83;;;486.40;2380.80;;;;;;5088022;28;20028;-75
2022/11/09 12:17:30;;;;;;;37.22;22.30;;;486.40;2380.80;;;;;;5085802;28;20032;-76
2022/11/09 12:20:04;;;;;;;33.55;20.52;;;461.70;2380.80;;;;;;5088456;28;20079;-74
2022/11/09 12:22:42;;;;;;;36.20;22.00;;;486.40;2380.80;;;;;;5088166;28;20023;-74
2022/11/09 12:25:18;;;;;;;33.33;21.20;;;461.70;2380.80;;;;;;5086840;28;20036;-75
2022/11/09 12:27:49;;;;;;;33.05;20.58;;;486.40;2380.80;;;;;;5086675;28;20051;-76
2022/11/09 12:30:22;;;;;;;32.72;21.25;;;461.70;2380.80;;;;;;5086558;28;20021;-75
2022/11/09 12:32:51;;;;;;;31.92;20.80;;;461.70;2380.80;;;;;;5086616;28;20054;-79
2022/11/09 12:35:19;;;;;;;33.13;21.75;;;461.60;2380.80;;;;;;5092260;28;20469;-75
2022/11/09 12:38:01;;;;;;;36.40;22.13;;;461.60;2380.80;;;;;;5099136;28;20028;-79
2022/11/09 12:40:43;;;;;;;32.92;20.85;;;461.50;2380.80;;;;;;5106720;28;20492;-76
2022/11/09 12:43:25;;;;;;;34.97;21.48;;;461.50;2380.80;;;;;;5095817;28;20078;-76
2022/11/09 12:45:52;;;;;;;34.25;20.55;;;461.50;2380.80;;;;;;5093447;28;20027;-76